createdAt,value
2023-01-06T00:07:12.687Z,3.28
2023-01-06T00:15:22.067Z,3.50
2023-01-06T00:23:27.498Z,3.10
2023-01-06T00:31:35.415Z,2.80
2023-01-06T00:39:40.702Z,3.05
2023-01-06T00:47:48.656Z,3.42
2023-01-06T00:55:54.946Z,3.00
2023-01-06T01:04:03.263Z,2.60
2023-01-06T01:12:15.295Z,2.88
2023-01-06T01:20:23.456Z,2.40
2023-01-06T01:28:30.993Z,3.28
2023-01-06T01:36:38.975Z,2.83
2023-01-06T01:45:00.278Z,3.00
2023-01-06T01:53:12.138Z,3.17
2023-01-06T02:01:17.695Z,3.30
2023-01-06T02:09:30.695Z,2.67
2023-01-06T02:17:54.399Z,3.10
2023-01-06T02:26:43.982Z,3.72
2023-01-06T02:35:04.818Z,3.05
2023-01-06T02:43:18.353Z,2.95
2023-01-06T02:51:34.661Z,2.60
2023-01-06T02:59:44.604Z,2.63
2023-01-06T03:07:53.973Z,2.60
2023-01-06T03:15:59.850Z,3.00
2023-01-06T03:24:08.515Z,3.40
2023-01-06T03:32:21.297Z,2.65
2023-01-06T03:40:36.893Z,2.97
2023-01-06T03:48:56.639Z,2.85
2023-01-06T03:57:09.949Z,3.13
2023-01-06T04:05:18.185Z,2.70
2023-01-06T04:13:27.050Z,2.33
2023-01-06T04:21:34.777Z,3.10
2023-01-06T04:29:43.257Z,2.20
2023-01-06T04:37:48.897Z,2.15
2023-01-06T04:45:56.958Z,2.33
2023-01-06T04:54:02.437Z,2.30
2023-01-06T05:02:10.422Z,2.13
2023-01-06T05:10:15.788Z,2.30
2023-01-06T05:18:23.869Z,1.90
2023-01-06T05:26:30.804Z,2.17
2023-01-06T05:34:39.367Z,2.42
2023-01-06T05:42:45.155Z,2.38
2023-01-06T05:50:54.314Z,2.30
2023-01-06T05:58:59.679Z,2.50
2023-01-06T06:07:07.657Z,2.47
2023-01-06T06:15:13.473Z,2.60
2023-01-06T06:23:21.826Z,2.40
2023-01-06T06:31:30.160Z,2.63
2023-01-06T06:39:40.893Z,2.97
2023-01-06T06:47:46.285Z,2.72
2023-01-06T06:55:54.248Z,3.08
2023-01-06T07:03:59.815Z,3.08
2023-01-06T07:12:08.759Z,3.20
2023-01-06T07:20:14.708Z,3.10
2023-01-06T07:28:22.727Z,2.83
2023-01-06T07:36:28.093Z,3.72
2023-01-06T07:44:36.121Z,2.38
2023-01-06T07:52:44.624Z,2.75
2023-01-06T08:00:53.285Z,2.80
2023-01-06T08:08:58.736Z,3.10
2023-01-06T08:17:07.013Z,2.47
2023-01-06T08:25:14.028Z,2.25
2023-01-06T08:33:24.281Z,2.95
2023-01-06T08:41:29.901Z,3.05
2023-01-06T08:49:38.066Z,3.63
2023-01-06T08:57:47.459Z,3.53
2023-01-06T09:06:00.450Z,3.63
2023-01-06T09:14:06.463Z,3.33
2023-01-06T09:22:15.488Z,3.35
2023-01-06T09:30:21.399Z,4.07
2023-01-06T09:38:30.459Z,3.20
2023-01-06T09:46:39.907Z,4.20
2023-01-06T09:54:55.189Z,4.95
2023-01-06T10:03:01.324Z,3.35
2023-01-06T10:11:29.046Z,2.60
2023-01-06T10:19:44.206Z,2.40
2023-01-06T10:27:56.324Z,2.30
2023-01-06T10:36:03.079Z,2.75
2023-01-06T10:52:59.497Z,2.30
2023-01-06T11:01:15.853Z,1.85
2023-01-06T11:09:32.923Z,2.10
2023-01-06T11:17:40.980Z,2.30
2023-01-06T11:25:46.651Z,2.25
2023-01-06T11:34:02.009Z,2.40
2023-01-06T11:42:14.133Z,3.50
2023-01-06T11:50:27.399Z,1.98
2023-01-06T11:59:03.761Z,2.57
2023-01-06T12:07:21.440Z,2.70
2023-01-06T12:15:30.611Z,3.15
2023-01-06T12:23:43.350Z,2.03
2023-01-06T12:31:57.704Z,2.58
2023-01-06T12:40:17.069Z,2.25
2023-01-06T12:48:29.894Z,2.40
2023-01-06T12:57:07.175Z,2.93
2023-01-06T13:05:39.620Z,2.60
2023-01-06T13:14:03.609Z,3.10
2023-01-06T13:30:49.974Z,2.58
2023-01-06T13:39:01.496Z,3.00
2023-01-06T13:47:12.728Z,3.25
2023-01-06T13:55:31.540Z,3.47
2023-01-06T14:03:40.435Z,4.13
2023-01-06T14:11:46.311Z,2.58
2023-01-06T14:19:57.886Z,4.40
2023-01-06T14:28:29.225Z,3.58
2023-01-06T14:36:38.898Z,2.45
2023-01-06T14:44:49.718Z,2.47
2023-01-06T14:53:01.324Z,3.30
2023-01-06T15:01:09.405Z,2.88
2023-01-06T15:09:22.833Z,3.80
2023-01-06T15:17:29.001Z,4.30
2023-01-06T15:25:40.825Z,4.53
2023-01-06T15:33:47.670Z,13.25
2023-01-06T15:41:57.554Z,9.05
2023-01-06T15:50:05.242Z,6.70
2023-01-06T15:58:20.147Z,13.77
2023-01-06T16:06:30.460Z,8.48
2023-01-06T16:14:43.808Z,5.68
2023-01-06T16:22:53.768Z,5.22
2023-01-06T16:31:13.488Z,6.07
2023-01-06T16:39:19.081Z,6.45
2023-01-06T16:47:27.139Z,24.92
2023-01-06T16:55:33.060Z,10.57
2023-01-06T17:03:41.983Z,8.27
2023-01-06T17:11:47.967Z,9.23
2023-01-06T17:19:56.312Z,9.60
2023-01-06T17:28:01.673Z,8.57
2023-01-06T17:36:25.860Z,8.50
2023-01-06T17:44:38.610Z,7.95
2023-01-06T17:53:07.215Z,9.77
2023-01-06T18:01:19.898Z,16.73
2023-01-06T18:09:29.167Z,21.10
2023-01-06T18:17:40.315Z,21.77
2023-01-06T18:25:48.992Z,26.40
2023-01-06T18:33:54.801Z,22.80
2023-01-06T18:42:21.894Z,19.42
2023-01-06T18:50:31.153Z,19.02
2023-01-06T18:58:50.204Z,26.15
2023-01-06T19:06:58.056Z,23.13
2023-01-06T19:15:21.732Z,27.08
2023-01-06T19:23:34.158Z,32.13
2023-01-06T19:31:56.287Z,28.73
2023-01-06T19:40:02.015Z,23.27
2023-01-06T19:48:20.184Z,21.13
2023-01-06T19:56:31.909Z,20.40
2023-01-06T20:04:43.212Z,20.38
2023-01-06T20:12:50.005Z,20.27
2023-01-06T20:21:02.807Z,23.25
2023-01-06T20:29:11.857Z,20.50
2023-01-06T20:37:20.036Z,26.30
2023-01-06T20:45:29.785Z,22.88
2023-01-06T20:53:38.450Z,24.35
2023-01-06T21:01:46.278Z,23.10
2023-01-06T21:18:34.657Z,24.70
2023-01-06T21:26:40.251Z,26.38
2023-01-06T21:45:00.724Z,25.23
2023-01-06T21:53:37.777Z,28.40
2023-01-06T22:11:32.007Z,31.73
2023-01-06T22:20:29.683Z,30.88
2023-01-06T22:28:40.531Z,31.30
2023-01-06T22:46:03.751Z,32.58
2023-01-06T22:54:22.969Z,35.13
2023-01-06T23:02:42.215Z,32.83
2023-01-06T23:10:49.346Z,38.70
2023-01-06T23:19:00.026Z,37.80
2023-01-06T23:27:09.562Z,41.03
2023-01-06T23:35:25.267Z,38.15
2023-01-06T23:43:30.811Z,34.95
2023-01-06T23:51:39.181Z,34.70
2023-01-06T23:59:44.846Z,34.47
